sensor_id;sensor_type;location;lat;lon;timestamp;pressure;altitude;pressure_sealevel;temperature;humidity
72110;BME280;59983;52.010;5.420;2023-05-16T00:00:50;101948.88;;;10.27;91.92
72110;BME280;59983;52.010;5.420;2023-05-16T00:03:19;101948.16;;;10.21;92.52
72110;BME280;59983;52.010;5.420;2023-05-16T00:05:46;101955.97;;;10.14;92.41
72110;BME280;59983;52.010;5.420;2023-05-16T00:08:13;101949.72;;;10.14;92.43
72110;BME280;59983;52.010;5.420;2023-05-16T00:10:39;101959.53;;;10.24;93.05
72110;BME280;59983;52.010;5.420;2023-05-16T00:13:06;101959.47;;;10.15;93.00
72110;BME280;59983;52.010;5.420;2023-05-16T00:15:32;101958.50;;;10.11;92.46
72110;BME280;59983;52.010;5.420;2023-05-16T00:18:00;101967.41;;;10.03;92.56
72110;BME280;59983;52.010;5.420;2023-05-16T00:20:27;101962.09;;;9.98;91.94
72110;BME280;59983;52.010;5.420;2023-05-16T00:22:54;101958.28;;;9.90;92.09
72110;BME280;59983;52.010;5.420;2023-05-16T00:25:21;101964.97;;;9.92;92.30
72110;BME280;59983;52.010;5.420;2023-05-16T00:27:48;101962.06;;;9.89;92.37
72110;BME280;59983;52.010;5.420;2023-05-16T00:30:14;101958.25;;;9.81;93.03
72110;BME280;59983;52.010;5.420;2023-05-16T00:32:41;101958.03;;;9.78;92.90
72110;BME280;59983;52.010;5.420;2023-05-16T00:35:08;101952.03;;;9.81;92.36
72110;BME280;59983;52.010;5.420;2023-05-16T00:37:37;101949.78;;;9.83;91.96
72110;BME280;59983;52.010;5.420;2023-05-16T00:40:04;101957.72;;;9.79;91.49
72110;BME280;59983;52.010;5.420;2023-05-16T00:42:31;101963.09;;;9.71;91.76
72110;BME280;59983;52.010;5.420;2023-05-16T00:44:58;101958.00;;;9.69;92.27
72110;BME280;59983;52.010;5.420;2023-05-16T00:47:25;101965.34;;;9.69;91.68
72110;BME280;59983;52.010;5.420;2023-05-16T00:49:52;101960.22;;;9.67;91.97
72110;BME280;59983;52.010;5.420;2023-05-16T00:52:19;101963.56;;;9.64;91.62
72110;BME280;59983;52.010;5.420;2023-05-16T00:54:45;101961.81;;;9.68;91.15
72110;BME280;59983;52.010;5.420;2023-05-16T00:57:12;101961.28;;;9.57;91.56
72110;BME280;59983;52.010;5.420;2023-05-16T00:59:39;101975.81;;;9.61;91.56
72110;BME280;59983;52.010;5.420;2023-05-16T01:02:07;101961.66;;;9.64;91.29
72110;BME280;59983;52.010;5.420;2023-05-16T01:04:34;101964.50;;;9.59;90.86
72110;BME280;59983;52.010;5.420;2023-05-16T01:07:01;101963.63;;;9.50;90.99
72110;BME280;59983;52.010;5.420;2023-05-16T01:09:28;101965.13;;;9.56;91.26
72110;BME280;59983;52.010;5.420;2023-05-16T01:17:30;101970.06;;;9.54;90.72
72110;BME280;59983;52.010;5.420;2023-05-16T01:22:51;101972.19;;;9.44;91.04
72110;BME280;59983;52.010;5.420;2023-05-16T01:28:22;101969.53;;;9.52;90.52
72110;BME280;59983;52.010;5.420;2023-05-16T01:30:50;101968.25;;;9.50;90.70
72110;BME280;59983;52.010;5.420;2023-05-16T01:33:16;101982.44;;;9.47;90.95
72110;BME280;59983;52.010;5.420;2023-05-16T01:35:54;101972.19;;;9.44;90.79
72110;BME280;59983;52.010;5.420;2023-05-16T01:38:35;101974.25;;;9.38;90.26
72110;BME280;59983;52.010;5.420;2023-05-16T01:41:25;101967.91;;;9.20;90.65
72110;BME280;59983;52.010;5.420;2023-05-16T01:43:58;101970.91;;;9.19;90.84
72110;BME280;59983;52.010;5.420;2023-05-16T01:46:30;101977.75;;;9.16;90.13
72110;BME280;59983;52.010;5.420;2023-05-16T01:52:00;101974.16;;;9.07;90.70
72110;BME280;59983;52.010;5.420;2023-05-16T01:54:30;101967.56;;;8.99;90.71
72110;BME280;59983;52.010;5.420;2023-05-16T01:56:58;101975.28;;;9.06;90.46
72110;BME280;59983;52.010;5.420;2023-05-16T01:59:26;101975.09;;;9.02;90.58
72110;BME280;59983;52.010;5.420;2023-05-16T02:01:55;101982.41;;;9.02;91.22
72110;BME280;59983;52.010;5.420;2023-05-16T02:04:22;101985.72;;;8.99;90.67
72110;BME280;59983;52.010;5.420;2023-05-16T02:06:50;101991.03;;;9.04;90.36
72110;BME280;59983;52.010;5.420;2023-05-16T02:09:17;101980.53;;;8.89;90.43
72110;BME280;59983;52.010;5.420;2023-05-16T02:11:43;101990.19;;;8.81;91.21
72110;BME280;59983;52.010;5.420;2023-05-16T02:14:12;101995.41;;;8.77;91.33
72110;BME280;59983;52.010;5.420;2023-05-16T02:16:38;101989.59;;;8.70;91.41
72110;BME280;59983;52.010;5.420;2023-05-16T02:19:05;101998.94;;;8.64;91.72
72110;BME280;59983;52.010;5.420;2023-05-16T02:21:31;101998.75;;;8.61;92.04
72110;BME280;59983;52.010;5.420;2023-05-16T02:23:58;101995.34;;;8.55;92.36
72110;BME280;59983;52.010;5.420;2023-05-16T02:26:24;101998.44;;;8.62;92.29
72110;BME280;59983;52.010;5.420;2023-05-16T02:28:51;102003.84;;;8.62;92.32
72110;BME280;59983;52.010;5.420;2023-05-16T02:31:28;102004.84;;;8.66;91.91
72110;BME280;59983;52.010;5.420;2023-05-16T02:33:56;102010.66;;;8.60;92.17
72110;BME280;59983;52.010;5.420;2023-05-16T02:36:24;102001.63;;;8.64;92.11
72110;BME280;59983;52.010;5.420;2023-05-16T02:38:50;102010.06;;;8.63;92.67
72110;BME280;59983;52.010;5.420;2023-05-16T02:41:17;102010.06;;;8.63;92.20
72110;BME280;59983;52.010;5.420;2023-05-16T02:43:44;102003.44;;;8.55;92.29
72110;BME280;59983;52.010;5.420;2023-05-16T02:48:48;102013.06;;;8.47;93.01
72110;BME280;59983;52.010;5.420;2023-05-16T02:51:15;102001.66;;;8.50;93.05
72110;BME280;59983;52.010;5.420;2023-05-16T02:53:42;102006.16;;;8.55;93.09
72110;BME280;59983;52.010;5.420;2023-05-16T02:56:09;102021.25;;;8.56;92.58
72110;BME280;59983;52.010;5.420;2023-05-16T02:58:36;102008.66;;;8.51;93.14
72110;BME280;59983;52.010;5.420;2023-05-16T03:01:02;102014.16;;;8.60;93.29
72110;BME280;59983;52.010;5.420;2023-05-16T03:03:29;102019.97;;;8.54;92.89
72110;BME280;59983;52.010;5.420;2023-05-16T03:05:56;102022.41;;;8.41;93.01
72110;BME280;59983;52.010;5.420;2023-05-16T03:08:22;102022.72;;;8.40;93.60
72110;BME280;59983;52.010;5.420;2023-05-16T03:10:48;102032.72;;;8.39;93.21
72110;BME280;59983;52.010;5.420;2023-05-16T03:13:15;102022.47;;;8.36;93.67
72110;BME280;59983;52.010;5.420;2023-05-16T03:15:41;102033.22;;;8.41;93.41
72110;BME280;59983;52.010;5.420;2023-05-16T03:18:08;102027.59;;;8.38;93.09
72110;BME280;59983;52.010;5.420;2023-05-16T03:20:34;102034.69;;;8.34;93.43
72110;BME280;59983;52.010;5.420;2023-05-16T03:23:01;102031.88;;;8.39;93.52
72110;BME280;59983;52.010;5.420;2023-05-16T03:25:27;102031.47;;;8.32;93.84
72110;BME280;59983;52.010;5.420;2023-05-16T03:27:54;102028.91;;;8.40;93.92
72110;BME280;59983;52.010;5.420;2023-05-16T03:30:21;102035.28;;;8.31;93.43
72110;BME280;59983;52.010;5.420;2023-05-16T03:32:48;102034.56;;;8.25;93.81
72110;BME280;59983;52.010;5.420;2023-05-16T03:35:14;102036.38;;;8.30;93.99
72110;BME280;59983;52.010;5.420;2023-05-16T03:37:41;102036.16;;;8.26;93.70
72110;BME280;59983;52.010;5.420;2023-05-16T03:40:08;102039.88;;;8.16;93.82
72110;BME280;59983;52.010;5.420;2023-05-16T03:42:34;102037.34;;;8.20;93.98
72110;BME280;59983;52.010;5.420;2023-05-16T03:45:01;102042.06;;;8.28;94.32
72110;BME280;59983;52.010;5.420;2023-05-16T03:47:28;102040.69;;;8.31;93.22
72110;BME280;59983;52.010;5.420;2023-05-16T03:49:56;102044.88;;;8.23;93.49
72110;BME280;59983;52.010;5.420;2023-05-16T03:52:23;102039.25;;;8.19;93.29
72110;BME280;59983;52.010;5.420;2023-05-16T03:54:50;102047.69;;;8.18;93.39
72110;BME280;59983;52.010;5.420;2023-05-16T03:57:16;102060.50;;;8.26;93.28
72110;BME280;59983;52.010;5.420;2023-05-16T03:59:43;102048.78;;;8.17;93.39
72110;BME280;59983;52.010;5.420;2023-05-16T04:02:09;102058.47;;;8.18;93.38
72110;BME280;59983;52.010;5.420;2023-05-16T04:04:36;102059.41;;;8.13;93.50
72110;BME280;59983;52.010;5.420;2023-05-16T04:07:02;102052.78;;;8.19;93.77
72110;BME280;59983;52.010;5.420;2023-05-16T04:09:29;102055.28;;;8.16;93.60
72110;BME280;59983;52.010;5.420;2023-05-16T04:11:56;102065.19;;;8.20;93.62
72110;BME280;59983;52.010;5.420;2023-05-16T04:14:22;102071.13;;;8.22;93.18
72110;BME280;59983;52.010;5.420;2023-05-16T04:16:49;102065.59;;;8.14;93.41
72110;BME280;59983;52.010;5.420;2023-05-16T04:19:16;102068.50;;;8.17;93.79
72110;BME280;59983;52.010;5.420;2023-05-16T04:21:43;102066.00;;;8.21;93.57
72110;BME280;59983;52.010;5.420;2023-05-16T04:24:10;102075.00;;;8.30;93.46
72110;BME280;59983;52.010;5.420;2023-05-16T04:26:36;102076.63;;;8.31;93.30
72110;BME280;59983;52.010;5.420;2023-05-16T04:29:03;102079.63;;;8.30;93.44
72110;BME280;59983;52.010;5.420;2023-05-16T04:31:29;102078.81;;;8.29;93.17
72110;BME280;59983;52.010;5.420;2023-05-16T04:33:56;102080.34;;;8.35;93.47
72110;BME280;59983;52.010;5.420;2023-05-16T04:36:23;102081.75;;;8.33;93.17
72110;BME280;59983;52.010;5.420;2023-05-16T04:38:49;102087.66;;;8.35;93.44
72110;BME280;59983;52.010;5.420;2023-05-16T04:41:16;102100.31;;;8.39;93.34
72110;BME280;59983;52.010;5.420;2023-05-16T04:43:43;102094.91;;;8.39;93.42
72110;BME280;59983;52.010;5.420;2023-05-16T04:46:09;102097.97;;;8.46;93.33
72110;BME280;59983;52.010;5.420;2023-05-16T04:48:36;102094.19;;;8.47;93.15
72110;BME280;59983;52.010;5.420;2023-05-16T04:51:02;102094.09;;;8.52;93.10
72110;BME280;59983;52.010;5.420;2023-05-16T04:53:29;102095.59;;;8.59;92.57
72110;BME280;59983;52.010;5.420;2023-05-16T04:55:56;102092.38;;;8.57;93.01
72110;BME280;59983;52.010;5.420;2023-05-16T04:58:22;102095.69;;;8.54;93.08
72110;BME280;59983;52.010;5.420;2023-05-16T05:00:53;102100.50;;;8.57;92.79
72110;BME280;59983;52.010;5.420;2023-05-16T05:03:21;102105.50;;;8.63;92.73
72110;BME280;59983;52.010;5.420;2023-05-16T05:05:47;102097.31;;;8.68;92.75
72110;BME280;59983;52.010;5.420;2023-05-16T05:08:14;102100.41;;;8.75;92.79
72110;BME280;59983;52.010;5.420;2023-05-16T05:10:40;102107.84;;;8.84;92.31
72110;BME280;59983;52.010;5.420;2023-05-16T05:13:07;102106.59;;;8.90;92.35
72110;BME280;59983;52.010;5.420;2023-05-16T05:15:33;102112.81;;;8.90;92.24
72110;BME280;59983;52.010;5.420;2023-05-16T05:18:00;102108.91;;;8.96;92.19
72110;BME280;59983;52.010;5.420;2023-05-16T05:20:27;102111.63;;;8.96;92.46
72110;BME280;59983;52.010;5.420;2023-05-16T05:22:53;102107.19;;;9.00;91.76
72110;BME280;59983;52.010;5.420;2023-05-16T05:25:20;102110.09;;;9.04;92.17
72110;BME280;59983;52.010;5.420;2023-05-16T05:27:46;102111.63;;;9.10;91.75
72110;BME280;59983;52.010;5.420;2023-05-16T05:30:13;102106.47;;;9.08;91.49
72110;BME280;59983;52.010;5.420;2023-05-16T05:32:39;102116.59;;;9.17;91.36
72110;BME280;59983;52.010;5.420;2023-05-16T05:35:06;102121.19;;;9.16;91.13
72110;BME280;59983;52.010;5.420;2023-05-16T05:37:33;102116.81;;;9.20;91.35
72110;BME280;59983;52.010;5.420;2023-05-16T05:39:59;102119.28;;;9.30;91.00
72110;BME280;59983;52.010;5.420;2023-05-16T05:42:26;102120.41;;;9.29;90.68
72110;BME280;59983;52.010;5.420;2023-05-16T05:44:52;102125.69;;;9.34;90.45
72110;BME280;59983;52.010;5.420;2023-05-16T05:47:19;102120.97;;;9.40;90.65
72110;BME280;59983;52.010;5.420;2023-05-16T05:49:46;102121.53;;;9.51;90.42
72110;BME280;59983;52.010;5.420;2023-05-16T05:52:13;102135.75;;;9.56;89.77
72110;BME280;59983;52.010;5.420;2023-05-16T05:54:40;102131.53;;;9.64;88.78
72110;BME280;59983;52.010;5.420;2023-05-16T05:57:06;102131.38;;;9.69;88.52
72110;BME280;59983;52.010;5.420;2023-05-16T05:59:33;102135.53;;;9.67;88.53
72110;BME280;59983;52.010;5.420;2023-05-16T06:01:59;102132.56;;;9.77;89.01
72110;BME280;59983;52.010;5.420;2023-05-16T06:04:26;102137.44;;;9.88;87.75
72110;BME280;59983;52.010;5.420;2023-05-16T06:06:53;102140.44;;;9.87;87.46
72110;BME280;59983;52.010;5.420;2023-05-16T06:09:20;102136.56;;;10.02;87.23
72110;BME280;59983;52.010;5.420;2023-05-16T06:11:47;102139.84;;;10.12;86.57
72110;BME280;59983;52.010;5.420;2023-05-16T06:14:13;102135.41;;;10.16;86.48
72110;BME280;59983;52.010;5.420;2023-05-16T06:16:41;102147.78;;;10.31;85.88
72110;BME280;59983;52.010;5.420;2023-05-16T06:19:08;102146.97;;;10.31;84.54
72110;BME280;59983;52.010;5.420;2023-05-16T06:21:35;102152.09;;;10.32;84.83
72110;BME280;59983;52.010;5.420;2023-05-16T06:24:02;102149.22;;;10.29;83.32
72110;BME280;59983;52.010;5.420;2023-05-16T06:26:29;102154.81;;;10.32;83.30
72110;BME280;59983;52.010;5.420;2023-05-16T06:28:55;102158.56;;;10.45;82.94
72110;BME280;59983;52.010;5.420;2023-05-16T06:31:22;102153.94;;;10.45;82.54
72110;BME280;59983;52.010;5.420;2023-05-16T06:33:48;102151.38;;;10.49;82.26
72110;BME280;59983;52.010;5.420;2023-05-16T06:36:15;102149.38;;;10.63;82.16
72110;BME280;59983;52.010;5.420;2023-05-16T06:38:41;102148.31;;;10.73;81.44
72110;BME280;59983;52.010;5.420;2023-05-16T06:41:08;102164.50;;;10.56;80.90
72110;BME280;59983;52.010;5.420;2023-05-16T06:43:34;102162.47;;;10.61;81.08
72110;BME280;59983;52.010;5.420;2023-05-16T06:46:01;102160.06;;;10.60;80.94
72110;BME280;59983;52.010;5.420;2023-05-16T06:48:29;102164.69;;;10.59;81.14
72110;BME280;59983;52.010;5.420;2023-05-16T06:50:56;102167.75;;;10.66;80.68
72110;BME280;59983;52.010;5.420;2023-05-16T06:53:22;102161.84;;;10.64;80.40
72110;BME280;59983;52.010;5.420;2023-05-16T06:55:49;102162.84;;;10.77;80.84
72110;BME280;59983;52.010;5.420;2023-05-16T06:58:16;102171.56;;;10.96;80.69
72110;BME280;59983;52.010;5.420;2023-05-16T07:00:43;102157.22;;;11.04;78.60
72110;BME280;59983;52.010;5.420;2023-05-16T07:03:09;102168.34;;;11.03;77.92
72110;BME280;59983;52.010;5.420;2023-05-16T07:05:36;102162.41;;;10.92;78.92
72110;BME280;59983;52.010;5.420;2023-05-16T07:08:03;102164.66;;;10.90;78.03
72110;BME280;59983;52.010;5.420;2023-05-16T07:10:33;102160.66;;;10.88;78.00
72110;BME280;59983;52.010;5.420;2023-05-16T07:13:00;102169.91;;;10.78;78.32
72110;BME280;59983;52.010;5.420;2023-05-16T07:15:26;102170.84;;;10.82;77.74
72110;BME280;59983;52.010;5.420;2023-05-16T07:17:53;102166.13;;;10.96;78.14
72110;BME280;59983;52.010;5.420;2023-05-16T07:20:20;102168.03;;;10.96;77.21
72110;BME280;59983;52.010;5.420;2023-05-16T07:22:47;102164.34;;;10.92;76.94
72110;BME280;59983;52.010;5.420;2023-05-16T07:25:14;102168.19;;;10.99;77.44
72110;BME280;59983;52.010;5.420;2023-05-16T07:27:41;102169.34;;;11.07;75.65
72110;BME280;59983;52.010;5.420;2023-05-16T07:30:11;102172.94;;;11.42;74.79
72110;BME280;59983;52.010;5.420;2023-05-16T07:32:38;102167.56;;;11.85;73.71
72110;BME280;59983;52.010;5.420;2023-05-16T07:35:05;102171.69;;;11.83;71.61
72110;BME280;59983;52.010;5.420;2023-05-16T07:37:32;102172.00;;;11.81;71.47
72110;BME280;59983;52.010;5.420;2023-05-16T07:39:59;102175.19;;;11.75;70.46
72110;BME280;59983;52.010;5.420;2023-05-16T07:42:25;102174.22;;;11.53;70.48
72110;BME280;59983;52.010;5.420;2023-05-16T07:44:52;102174.84;;;11.42;72.08
72110;BME280;59983;52.010;5.420;2023-05-16T07:47:19;102180.63;;;11.40;70.89
72110;BME280;59983;52.010;5.420;2023-05-16T07:49:45;102172.94;;;11.42;71.17
72110;BME280;59983;52.010;5.420;2023-05-16T07:52:12;102170.53;;;11.41;71.41
72110;BME280;59983;52.010;5.420;2023-05-16T07:54:38;102186.19;;;11.44;70.99
72110;BME280;59983;52.010;5.420;2023-05-16T07:57:05;102185.72;;;11.50;69.99
72110;BME280;59983;52.010;5.420;2023-05-16T07:59:32;102177.72;;;11.45;69.86
72110;BME280;59983;52.010;5.420;2023-05-16T08:01:59;102168.44;;;11.46;70.10
72110;BME280;59983;52.010;5.420;2023-05-16T08:04:26;102174.91;;;11.94;71.13
72110;BME280;59983;52.010;5.420;2023-05-16T08:06:52;102171.53;;;12.05;70.16
72110;BME280;59983;52.010;5.420;2023-05-16T08:09:19;102167.66;;;12.15;68.54
72110;BME280;59983;52.010;5.420;2023-05-16T08:11:46;102161.41;;;12.23;69.16
72110;BME280;59983;52.010;5.420;2023-05-16T08:14:12;102162.22;;;12.70;67.64
72110;BME280;59983;52.010;5.420;2023-05-16T08:16:39;102160.00;;;13.02;67.17
72110;BME280;59983;52.010;5.420;2023-05-16T08:19:06;102159.53;;;13.00;66.05
72110;BME280;59983;52.010;5.420;2023-05-16T08:21:32;102170.91;;;13.02;66.46
72110;BME280;59983;52.010;5.420;2023-05-16T08:23:59;102184.47;;;12.81;65.60
72110;BME280;59983;52.010;5.420;2023-05-16T08:26:25;102186.81;;;12.44;66.01
72110;BME280;59983;52.010;5.420;2023-05-16T08:28:52;102193.41;;;12.26;66.89
72110;BME280;59983;52.010;5.420;2023-05-16T08:31:19;102196.94;;;12.18;66.90
72110;BME280;59983;52.010;5.420;2023-05-16T08:33:46;102191.84;;;11.90;67.75
72110;BME280;59983;52.010;5.420;2023-05-16T08:36:13;102194.75;;;11.94;67.18
72110;BME280;59983;52.010;5.420;2023-05-16T08:38:41;102186.19;;;12.39;68.22
72110;BME280;59983;52.010;5.420;2023-05-16T08:41:07;102181.84;;;12.93;65.51
72110;BME280;59983;52.010;5.420;2023-05-16T08:43:34;102168.69;;;13.25;66.37
72110;BME280;59983;52.010;5.420;2023-05-16T08:46:01;102169.31;;;13.51;66.42
72110;BME280;59983;52.010;5.420;2023-05-16T08:48:30;102167.72;;;13.92;65.84
72110;BME280;59983;52.010;5.420;2023-05-16T08:50:59;102167.56;;;14.22;63.99
72110;BME280;59983;52.010;5.420;2023-05-16T08:53:42;102176.00;;;14.16;62.88
72110;BME280;59983;52.010;5.420;2023-05-16T08:56:12;102174.00;;;13.72;62.50
72110;BME280;59983;52.010;5.420;2023-05-16T08:58:39;102180.50;;;13.38;62.41
72110;BME280;59983;52.010;5.420;2023-05-16T09:01:05;102179.94;;;13.15;61.59
72110;BME280;59983;52.010;5.420;2023-05-16T09:03:38;102182.13;;;13.30;63.12
72110;BME280;59983;52.010;5.420;2023-05-16T09:06:06;102192.13;;;13.68;62.45
72110;BME280;59983;52.010;5.420;2023-05-16T09:08:33;102186.00;;;13.92;61.14
72110;BME280;59983;52.010;5.420;2023-05-16T09:11:01;102176.75;;;14.05;60.57
72110;BME280;59983;52.010;5.420;2023-05-16T09:13:27;102172.81;;;14.14;58.02
72110;BME280;59983;52.010;5.420;2023-05-16T09:16:17;102180.75;;;13.86;59.81
72110;BME280;59983;52.010;5.420;2023-05-16T09:18:56;102185.31;;;13.62;58.69
72110;BME280;59983;52.010;5.420;2023-05-16T09:21:32;102183.34;;;13.41;59.31
72110;BME280;59983;52.010;5.420;2023-05-16T09:24:07;102187.53;;;13.39;59.90
72110;BME280;59983;52.010;5.420;2023-05-16T09:26:37;102183.72;;;13.60;60.36
72110;BME280;59983;52.010;5.420;2023-05-16T09:29:10;102186.81;;;13.71;61.22
72110;BME280;59983;52.010;5.420;2023-05-16T09:31:38;102175.56;;;13.94;58.83
72110;BME280;59983;52.010;5.420;2023-05-16T09:34:08;102182.13;;;14.13;60.53
72110;BME280;59983;52.010;5.420;2023-05-16T09:36:37;102183.59;;;14.56;58.79
72110;BME280;59983;52.010;5.420;2023-05-16T09:39:06;102179.53;;;14.74;53.95
72110;BME280;59983;52.010;5.420;2023-05-16T09:41:33;102179.69;;;15.02;53.36
72110;BME280;59983;52.010;5.420;2023-05-16T09:44:04;102186.50;;;14.84;53.70
72110;BME280;59983;52.010;5.420;2023-05-16T09:46:33;102171.59;;;14.69;55.90
72110;BME280;59983;52.010;5.420;2023-05-16T09:49:00;102193.28;;;14.54;55.78
72110;BME280;59983;52.010;5.420;2023-05-16T09:51:27;102192.44;;;14.41;54.91
72110;BME280;59983;52.010;5.420;2023-05-16T09:53:57;102195.66;;;14.22;53.33
72110;BME280;59983;52.010;5.420;2023-05-16T09:56:24;102202.19;;;13.97;55.95
72110;BME280;59983;52.010;5.420;2023-05-16T09:58:51;102195.66;;;13.89;56.19
72110;BME280;59983;52.010;5.420;2023-05-16T10:01:18;102190.63;;;14.12;58.36
72110;BME280;59983;52.010;5.420;2023-05-16T10:03:44;102202.38;;;14.45;57.03
72110;BME280;59983;52.010;5.420;2023-05-16T10:06:12;102185.59;;;14.68;55.21
72110;BME280;59983;52.010;5.420;2023-05-16T10:08:41;102186.97;;;15.11;56.20
72110;BME280;59983;52.010;5.420;2023-05-16T10:11:08;102189.19;;;15.45;54.78
72110;BME280;59983;52.010;5.420;2023-05-16T10:13:37;102184.50;;;15.58;50.02
72110;BME280;59983;52.010;5.420;2023-05-16T10:16:10;102183.75;;;15.33;49.48
72110;BME280;59983;52.010;5.420;2023-05-16T10:18:38;102185.81;;;14.99;51.16
72110;BME280;59983;52.010;5.420;2023-05-16T10:21:14;102191.59;;;14.61;52.25
72110;BME280;59983;52.010;5.420;2023-05-16T10:23:42;102182.03;;;14.55;53.52
72110;BME280;59983;52.010;5.420;2023-05-16T10:26:10;102187.16;;;14.81;54.35
72110;BME280;59983;52.010;5.420;2023-05-16T10:28:40;102185.69;;;15.08;54.96
72110;BME280;59983;52.010;5.420;2023-05-16T10:31:07;102190.91;;;15.25;51.20
72110;BME280;59983;52.010;5.420;2023-05-16T10:33:35;102188.78;;;15.07;51.39
72110;BME280;59983;52.010;5.420;2023-05-16T10:36:02;102196.97;;;14.82;51.53
72110;BME280;59983;52.010;5.420;2023-05-16T10:38:31;102193.19;;;14.62;51.69
72110;BME280;59983;52.010;5.420;2023-05-16T10:40:57;102183.84;;;14.63;54.06
72110;BME280;59983;52.010;5.420;2023-05-16T10:43:29;102189.09;;;14.81;54.27
72110;BME280;59983;52.010;5.420;2023-05-16T10:45:58;102191.16;;;14.71;54.00
72110;BME280;59983;52.010;5.420;2023-05-16T10:48:35;102189.34;;;14.88;54.15
72110;BME280;59983;52.010;5.420;2023-05-16T10:53:53;102184.56;;;14.85;52.38
72110;BME280;59983;52.010;5.420;2023-05-16T10:56:25;102194.94;;;15.04;53.00
72110;BME280;59983;52.010;5.420;2023-05-16T10:58:53;102189.34;;;15.12;50.04
72110;BME280;59983;52.010;5.420;2023-05-16T11:01:25;102191.06;;;15.05;50.78
72110;BME280;59983;52.010;5.420;2023-05-16T11:06:32;102193.78;;;15.29;51.43
72110;BME280;59983;52.010;5.420;2023-05-16T11:14:25;102194.13;;;15.15;50.06
72110;BME280;59983;52.010;5.420;2023-05-16T11:17:11;102185.56;;;14.92;50.82
72110;BME280;59983;52.010;5.420;2023-05-16T11:19:51;102192.09;;;15.12;50.79
72110;BME280;59983;52.010;5.420;2023-05-16T11:29:55;102193.31;;;14.78;50.77
72110;BME280;59983;52.010;5.420;2023-05-16T11:32:28;102198.34;;;14.76;51.27
72110;BME280;59983;52.010;5.420;2023-05-16T11:34:56;102195.81;;;14.59;50.18
72110;BME280;59983;52.010;5.420;2023-05-16T11:37:23;102196.09;;;14.45;51.27
72110;BME280;59983;52.010;5.420;2023-05-16T11:39:50;102200.44;;;14.46;51.68
72110;BME280;59983;52.010;5.420;2023-05-16T11:42:17;102208.81;;;14.41;52.82
72110;BME280;59983;52.010;5.420;2023-05-16T11:44:44;102202.81;;;14.48;50.93
72110;BME280;59983;52.010;5.420;2023-05-16T11:47:11;102206.19;;;14.44;50.95
72110;BME280;59983;52.010;5.420;2023-05-16T11:49:39;102205.84;;;14.34;51.68
72110;BME280;59983;52.010;5.420;2023-05-16T11:52:07;102204.03;;;14.38;52.08
72110;BME280;59983;52.010;5.420;2023-05-16T11:54:35;102204.31;;;14.57;51.78
72110;BME280;59983;52.010;5.420;2023-05-16T11:57:01;102206.63;;;14.67;51.38
72110;BME280;59983;52.010;5.420;2023-05-16T11:59:28;102207.97;;;14.61;51.89
72110;BME280;59983;52.010;5.420;2023-05-16T12:01:55;102206.72;;;14.59;52.08
72110;BME280;59983;52.010;5.420;2023-05-16T12:04:22;102211.72;;;14.57;52.82
72110;BME280;59983;52.010;5.420;2023-05-16T12:06:58;102210.47;;;14.54;53.19
72110;BME280;59983;52.010;5.420;2023-05-16T12:09:26;102210.00;;;14.52;52.54
72110;BME280;59983;52.010;5.420;2023-05-16T12:11:52;102217.25;;;14.48;53.44
72110;BME280;59983;52.010;5.420;2023-05-16T12:14:19;102221.69;;;14.40;52.40
72110;BME280;59983;52.010;5.420;2023-05-16T12:16:46;102218.53;;;14.51;52.32
72110;BME280;59983;52.010;5.420;2023-05-16T12:19:15;102220.94;;;14.64;51.74
72110;BME280;59983;52.010;5.420;2023-05-16T12:21:41;102218.13;;;14.73;51.86
72110;BME280;59983;52.010;5.420;2023-05-16T12:24:09;102222.09;;;14.63;53.04
72110;BME280;59983;52.010;5.420;2023-05-16T12:26:39;102223.31;;;14.54;52.52
72110;BME280;59983;52.010;5.420;2023-05-16T12:29:06;102220.66;;;14.78;53.97
72110;BME280;59983;52.010;5.420;2023-05-16T12:31:38;102221.88;;;14.81;52.80
72110;BME280;59983;52.010;5.420;2023-05-16T12:34:14;102215.97;;;14.79;52.40
72110;BME280;59983;52.010;5.420;2023-05-16T12:36:41;102219.06;;;14.77;51.04
72110;BME280;59983;52.010;5.420;2023-05-16T12:39:11;102223.56;;;14.61;52.33
72110;BME280;59983;52.010;5.420;2023-05-16T12:41:41;102229.22;;;14.56;52.93
72110;BME280;59983;52.010;5.420;2023-05-16T12:44:13;102224.00;;;14.51;53.40
72110;BME280;59983;52.010;5.420;2023-05-16T12:46:43;102233.69;;;14.60;55.15
72110;BME280;59983;52.010;5.420;2023-05-16T12:49:12;102218.56;;;14.63;53.05
72110;BME280;59983;52.010;5.420;2023-05-16T12:51:39;102219.94;;;14.81;53.97
72110;BME280;59983;52.010;5.420;2023-05-16T12:54:10;102222.94;;;15.25;52.52
72110;BME280;59983;52.010;5.420;2023-05-16T12:56:40;102224.75;;;15.33;51.16
72110;BME280;59983;52.010;5.420;2023-05-16T12:59:07;102215.06;;;14.99;52.09
72110;BME280;59983;52.010;5.420;2023-05-16T13:01:34;102218.81;;;14.70;52.42
72110;BME280;59983;52.010;5.420;2023-05-16T13:04:01;102215.03;;;14.62;53.92
72110;BME280;59983;52.010;5.420;2023-05-16T13:06:28;102219.44;;;14.55;54.56
72110;BME280;59983;52.010;5.420;2023-05-16T13:09:14;102225.84;;;14.59;54.03
72110;BME280;59983;52.010;5.420;2023-05-16T13:11:41;102228.53;;;14.47;54.76
72110;BME280;59983;52.010;5.420;2023-05-16T13:14:07;102226.59;;;14.47;56.56
72110;BME280;59983;52.010;5.420;2023-05-16T13:16:34;102227.38;;;14.48;56.40
72110;BME280;59983;52.010;5.420;2023-05-16T13:19:01;102229.66;;;14.45;56.76
72110;BME280;59983;52.010;5.420;2023-05-16T13:21:28;102241.88;;;14.27;56.46
72110;BME280;59983;52.010;5.420;2023-05-16T13:23:57;102232.63;;;14.20;54.80
72110;BME280;59983;52.010;5.420;2023-05-16T13:26:24;102239.88;;;14.15;55.58
72110;BME280;59983;52.010;5.420;2023-05-16T13:28:52;102240.09;;;14.10;55.48
72110;BME280;59983;52.010;5.420;2023-05-16T13:31:20;102237.69;;;14.09;56.27
72110;BME280;59983;52.010;5.420;2023-05-16T13:33:47;102234.84;;;14.38;56.81